Overview Statistics Trail Chart Weather Telemetry Raw packets
 

This is the latest recevied weather packets stored in our database for station/object NK7E-2. If no packets are shown the sender has not sent any weather packets the latest 10 day(s).

<< 12 13 14 15 16 17 18 >>
Time Temp. Humidity Pressure Rain* Wind** Luminosity Snow
1788261616 17.78° C 89% 1025 hPa 0 mm - - -
1788261016 17.78° C 89% 1025.2 hPa 0 mm - - -
1788260416 17.78° C 89% 1024.8 hPa 0 mm - - -
1788259816 17.78° C 89% 1024.7 hPa 0 mm - - -
1788259216 18.33° C 87% 1024.5 hPa 0 mm - - -
1788258616 17.78° C 89% 1024.9 hPa 0 mm - - -
1788258016 18.33° C 88% 1024.9 hPa 0 mm - - -
1788257416 18.33° C 87% 1025.1 hPa 0 mm - - -
1788256816 18.33° C 86% 1025.2 hPa 0 mm - - -
1788256216 18.89° C 86% 1025.2 hPa 0 mm - - -
1788255616 19.44° C 85% 1025.2 hPa 0 mm - - -
1788255016 19.44° C 84% 1025.2 hPa 0 mm - - -
1788254416 19.44° C 84% 1025.1 hPa 0 mm - - -
1788253816 18.89° C 84% 1025.1 hPa 0 mm - - -
1788253216 18.89° C 84% 1025.3 hPa 0 mm - - -
1788252615 19.44° C 83% 1025.2 hPa 0 mm - - -
1788252016 20° C 80% 1025.3 hPa 0 mm - - -
1788251416 19.44° C 80% 1025.2 hPa 0 mm - - -
1788250815 19.44° C 80% 1025.2 hPa 0 mm - - -
1788250216 20° C 77% 1025.5 hPa 0 mm - - -
1788249615 19.44° C 79% 1025.5 hPa 0 mm - - -
1788249015 19.44° C 83% 1025.6 hPa 0 mm - - -
1788248415 20° C 82% 1025.8 hPa 0 mm - - -
1788247815 20° C 84% 1026 hPa 0 mm - - -
1788247217 19.44° C 85% 1026 hPa 0 mm - - -

* Rain latest hour (hover to see other rain measurements)
** Current wind speed in m/s (hover to see current wind gust speed)